sensor_id;sensor_type;location;lat;lon;timestamp;temperature;humidity
8067;DHT22;4076;48.076;9.118;2023-10-13T00:01:22;11.90;99.90
8067;DHT22;4076;48.076;9.118;2023-10-13T00:03:48;11.90;99.90
8067;DHT22;4076;48.076;9.118;2023-10-13T00:06:13;11.90;99.90
8067;DHT22;4076;48.076;9.118;2023-10-13T00:08:41;11.70;99.90
8067;DHT22;4076;48.076;9.118;2023-10-13T00:11:11;11.60;99.90
8067;DHT22;4076;48.076;9.118;2023-10-13T00:13:37;11.50;99.90
8067;DHT22;4076;48.076;9.118;2023-10-13T00:16:15;11.50;99.90
8067;DHT22;4076;48.076;9.118;2023-10-13T00:18:47;11.40;99.90
8067;DHT22;4076;48.076;9.118;2023-10-13T00:21:14;11.40;99.90
8067;DHT22;4076;48.076;9.118;2023-10-13T00:23:57;11.40;99.90
8067;DHT22;4076;48.076;9.118;2023-10-13T00:26:26;11.40;99.90
8067;DHT22;4076;48.076;9.118;2023-10-13T00:28:54;11.30;99.90
8067;DHT22;4076;48.076;9.118;2023-10-13T00:31:32;11.30;99.90
8067;DHT22;4076;48.076;9.118;2023-10-13T00:34:04;11.20;99.90
8067;DHT22;4076;48.076;9.118;2023-10-13T00:36:50;11.10;99.90
8067;DHT22;4076;48.076;9.118;2023-10-13T00:39:35;11.10;99.90
8067;DHT22;4076;48.076;9.118;2023-10-13T00:42:03;11.10;99.90
8067;DHT22;4076;48.076;9.118;2023-10-13T00:44:33;11.00;99.90
8067;DHT22;4076;48.076;9.118;2023-10-13T00:47:08;10.90;99.90
8067;DHT22;4076;48.076;9.118;2023-10-13T00:49:36;10.80;99.90
8067;DHT22;4076;48.076;9.118;2023-10-13T00:52:06;10.70;99.90
8067;DHT22;4076;48.076;9.118;2023-10-13T00:54:36;10.70;99.90
8067;DHT22;4076;48.076;9.118;2023-10-13T00:57:03;10.60;99.90
8067;DHT22;4076;48.076;9.118;2023-10-13T00:59:55;10.60;99.90
8067;DHT22;4076;48.076;9.118;2023-10-13T01:02:21;10.60;99.90
8067;DHT22;4076;48.076;9.118;2023-10-13T01:05:02;10.60;99.90
8067;DHT22;4076;48.076;9.118;2023-10-13T01:07:28;10.60;99.90
8067;DHT22;4076;48.076;9.118;2023-10-13T01:09:54;10.50;99.90
8067;DHT22;4076;48.076;9.118;2023-10-13T01:12:20;10.40;99.90
8067;DHT22;4076;48.076;9.118;2023-10-13T01:14:49;10.40;99.90
8067;DHT22;4076;48.076;9.118;2023-10-13T01:17:14;10.50;99.90
8067;DHT22;4076;48.076;9.118;2023-10-13T01:19:40;10.40;99.90
8067;DHT22;4076;48.076;9.118;2023-10-13T01:22:11;10.30;99.90
8067;DHT22;4076;48.076;9.118;2023-10-13T01:24:37;10.30;99.90
8067;DHT22;4076;48.076;9.118;2023-10-13T01:27:03;10.20;99.90
8067;DHT22;4076;48.076;9.118;2023-10-13T01:29:40;10.20;99.90
8067;DHT22;4076;48.076;9.118;2023-10-13T01:32:05;10.20;99.90
8067;DHT22;4076;48.076;9.118;2023-10-13T01:34:31;10.20;99.90
8067;DHT22;4076;48.076;9.118;2023-10-13T01:36:58;10.30;99.90
8067;DHT22;4076;48.076;9.118;2023-10-13T01:39:30;10.20;99.90
8067;DHT22;4076;48.076;9.118;2023-10-13T01:41:56;10.20;99.90
8067;DHT22;4076;48.076;9.118;2023-10-13T01:44:26;10.20;99.90
8067;DHT22;4076;48.076;9.118;2023-10-13T01:46:56;10.20;99.90
8067;DHT22;4076;48.076;9.118;2023-10-13T01:49:27;10.20;99.90
8067;DHT22;4076;48.076;9.118;2023-10-13T01:51:52;10.10;99.90
8067;DHT22;4076;48.076;9.118;2023-10-13T01:54:19;10.10;99.90
8067;DHT22;4076;48.076;9.118;2023-10-13T01:56:46;10.10;99.90
8067;DHT22;4076;48.076;9.118;2023-10-13T01:59:14;10.10;99.90
8067;DHT22;4076;48.076;9.118;2023-10-13T02:01:41;10.10;99.90
8067;DHT22;4076;48.076;9.118;2023-10-13T02:04:07;10.00;99.90
8067;DHT22;4076;48.076;9.118;2023-10-13T02:06:34;10.00;99.90
8067;DHT22;4076;48.076;9.118;2023-10-13T02:09:08;10.00;99.90
8067;DHT22;4076;48.076;9.118;2023-10-13T02:11:40;9.90;99.90
8067;DHT22;4076;48.076;9.118;2023-10-13T02:14:07;9.90;99.90
8067;DHT22;4076;48.076;9.118;2023-10-13T02:16:33;9.90;99.90
8067;DHT22;4076;48.076;9.118;2023-10-13T02:18:58;9.90;99.90
8067;DHT22;4076;48.076;9.118;2023-10-13T02:21:33;9.90;99.90
8067;DHT22;4076;48.076;9.118;2023-10-13T02:24:06;9.90;99.90
8067;DHT22;4076;48.076;9.118;2023-10-13T02:26:38;9.90;99.90
8067;DHT22;4076;48.076;9.118;2023-10-13T02:29:06;9.90;99.90
8067;DHT22;4076;48.076;9.118;2023-10-13T02:31:43;9.80;99.90
8067;DHT22;4076;48.076;9.118;2023-10-13T02:34:22;9.70;99.90
8067;DHT22;4076;48.076;9.118;2023-10-13T02:36:49;9.70;99.90
8067;DHT22;4076;48.076;9.118;2023-10-13T02:39:18;9.70;99.90
8067;DHT22;4076;48.076;9.118;2023-10-13T02:41:52;9.70;99.90
8067;DHT22;4076;48.076;9.118;2023-10-13T02:44:18;9.60;99.90
8067;DHT22;4076;48.076;9.118;2023-10-13T02:46:56;9.60;99.90
8067;DHT22;4076;48.076;9.118;2023-10-13T02:49:23;9.60;99.90
8067;DHT22;4076;48.076;9.118;2023-10-13T02:51:51;9.60;99.90
8067;DHT22;4076;48.076;9.118;2023-10-13T02:54:19;9.60;99.90
8067;DHT22;4076;48.076;9.118;2023-10-13T02:56:45;9.60;99.90
8067;DHT22;4076;48.076;9.118;2023-10-13T02:59:15;9.50;99.90
8067;DHT22;4076;48.076;9.118;2023-10-13T03:01:45;9.50;99.90
8067;DHT22;4076;48.076;9.118;2023-10-13T03:04:10;9.50;99.90
8067;DHT22;4076;48.076;9.118;2023-10-13T03:06:38;9.50;99.90
8067;DHT22;4076;48.076;9.118;2023-10-13T03:09:08;9.50;99.90
8067;DHT22;4076;48.076;9.118;2023-10-13T03:11:41;9.40;99.90
8067;DHT22;4076;48.076;9.118;2023-10-13T03:14:16;9.40;99.90
8067;DHT22;4076;48.076;9.118;2023-10-13T03:17:00;9.30;99.90
8067;DHT22;4076;48.076;9.118;2023-10-13T03:19:42;9.30;99.90
8067;DHT22;4076;48.076;9.118;2023-10-13T03:22:12;9.30;99.90
8067;DHT22;4076;48.076;9.118;2023-10-13T03:24:41;9.30;99.90
8067;DHT22;4076;48.076;9.118;2023-10-13T03:27:19;9.30;99.90
8067;DHT22;4076;48.076;9.118;2023-10-13T03:29:49;9.30;99.90
8067;DHT22;4076;48.076;9.118;2023-10-13T03:32:21;9.20;99.90
8067;DHT22;4076;48.076;9.118;2023-10-13T03:34:47;9.20;99.90
8067;DHT22;4076;48.076;9.118;2023-10-13T03:37:25;8.90;99.90
8067;DHT22;4076;48.076;9.118;2023-10-13T03:42:55;9.20;99.90
8067;DHT22;4076;48.076;9.118;2023-10-13T03:45:32;9.20;99.90
8067;DHT22;4076;48.076;9.118;2023-10-13T03:48:04;9.10;99.90
8067;DHT22;4076;48.076;9.118;2023-10-13T03:50:38;9.10;99.90
8067;DHT22;4076;48.076;9.118;2023-10-13T03:53:12;9.10;99.90
8067;DHT22;4076;48.076;9.118;2023-10-13T03:55:39;9.10;99.90
8067;DHT22;4076;48.076;9.118;2023-10-13T03:58:04;9.10;99.90
8067;DHT22;4076;48.076;9.118;2023-10-13T04:00:30;9.10;99.90
8067;DHT22;4076;48.076;9.118;2023-10-13T04:02:57;9.10;99.90
8067;DHT22;4076;48.076;9.118;2023-10-13T04:05:32;9.10;99.90
8067;DHT22;4076;48.076;9.118;2023-10-13T04:08:06;9.00;99.90
8067;DHT22;4076;48.076;9.118;2023-10-13T04:10:55;9.00;99.90
8067;DHT22;4076;48.076;9.118;2023-10-13T04:13:22;9.00;99.90
8067;DHT22;4076;48.076;9.118;2023-10-13T04:16:09;9.00;99.90
8067;DHT22;4076;48.076;9.118;2023-10-13T04:19:00;9.00;99.90
8067;DHT22;4076;48.076;9.118;2023-10-13T04:21:26;9.00;99.90
8067;DHT22;4076;48.076;9.118;2023-10-13T04:24:11;9.10;99.90
8067;DHT22;4076;48.076;9.118;2023-10-13T04:26:47;9.10;99.90
8067;DHT22;4076;48.076;9.118;2023-10-13T04:29:32;9.00;99.90
8067;DHT22;4076;48.076;9.118;2023-10-13T04:32:16;9.00;99.90
8067;DHT22;4076;48.076;9.118;2023-10-13T04:34:57;9.00;99.90
8067;DHT22;4076;48.076;9.118;2023-10-13T04:37:38;8.90;99.90
8067;DHT22;4076;48.076;9.118;2023-10-13T04:40:18;8.90;99.90
8067;DHT22;4076;48.076;9.118;2023-10-13T04:42:45;8.80;99.90
8067;DHT22;4076;48.076;9.118;2023-10-13T04:45:30;8.80;99.90
8067;DHT22;4076;48.076;9.118;2023-10-13T04:47:56;8.70;99.90
8067;DHT22;4076;48.076;9.118;2023-10-13T04:50:42;8.70;99.90
8067;DHT22;4076;48.076;9.118;2023-10-13T04:53:15;8.70;99.90
8067;DHT22;4076;48.076;9.118;2023-10-13T04:55:59;8.70;99.90
8067;DHT22;4076;48.076;9.118;2023-10-13T04:58:33;8.80;99.90
8067;DHT22;4076;48.076;9.118;2023-10-13T05:01:02;8.80;99.90
8067;DHT22;4076;48.076;9.118;2023-10-13T05:03:46;8.80;99.90
8067;DHT22;4076;48.076;9.118;2023-10-13T05:06:28;8.80;99.90
8067;DHT22;4076;48.076;9.118;2023-10-13T05:09:10;8.70;99.90
8067;DHT22;4076;48.076;9.118;2023-10-13T05:11:54;8.70;99.90
8067;DHT22;4076;48.076;9.118;2023-10-13T05:14:38;8.70;99.90
8067;DHT22;4076;48.076;9.118;2023-10-13T05:17:23;8.70;99.90
8067;DHT22;4076;48.076;9.118;2023-10-13T05:20:08;8.70;99.90
8067;DHT22;4076;48.076;9.118;2023-10-13T05:22:52;8.70;99.90
8067;DHT22;4076;48.076;9.118;2023-10-13T05:25:37;8.60;99.90
8067;DHT22;4076;48.076;9.118;2023-10-13T05:28:21;8.60;99.90
8067;DHT22;4076;48.076;9.118;2023-10-13T05:31:07;8.60;99.90
8067;DHT22;4076;48.076;9.118;2023-10-13T05:33:51;8.60;99.90
8067;DHT22;4076;48.076;9.118;2023-10-13T05:36:36;8.60;99.90
8067;DHT22;4076;48.076;9.118;2023-10-13T05:39:20;8.60;99.90
8067;DHT22;4076;48.076;9.118;2023-10-13T05:42:05;8.60;99.90
8067;DHT22;4076;48.076;9.118;2023-10-13T05:44:49;8.60;99.90
8067;DHT22;4076;48.076;9.118;2023-10-13T05:47:53;8.60;99.90
8067;DHT22;4076;48.076;9.118;2023-10-13T05:50:37;8.60;99.90
8067;DHT22;4076;48.076;9.118;2023-10-13T05:53:21;8.10;99.90
8067;DHT22;4076;48.076;9.118;2023-10-13T05:56:05;8.60;99.90
8067;DHT22;4076;48.076;9.118;2023-10-13T05:58:49;8.60;99.90
8067;DHT22;4076;48.076;9.118;2023-10-13T06:01:33;8.60;99.90
8067;DHT22;4076;48.076;9.118;2023-10-13T06:04:17;8.60;99.90
8067;DHT22;4076;48.076;9.118;2023-10-13T06:07:01;8.70;99.90
8067;DHT22;4076;48.076;9.118;2023-10-13T06:09:45;8.70;99.90
8067;DHT22;4076;48.076;9.118;2023-10-13T06:12:29;8.70;99.90
8067;DHT22;4076;48.076;9.118;2023-10-13T06:15:14;8.80;99.90
8067;DHT22;4076;48.076;9.118;2023-10-13T06:17:58;8.80;99.90
8067;DHT22;4076;48.076;9.118;2023-10-13T06:21:02;8.80;99.90
8067;DHT22;4076;48.076;9.118;2023-10-13T06:23:46;8.90;99.90
8067;DHT22;4076;48.076;9.118;2023-10-13T06:26:30;9.00;99.90
8067;DHT22;4076;48.076;9.118;2023-10-13T06:29:15;9.00;99.90
8067;DHT22;4076;48.076;9.118;2023-10-13T06:31:45;9.30;99.90
8067;DHT22;4076;48.076;9.118;2023-10-13T06:34:11;9.30;99.90
8067;DHT22;4076;48.076;9.118;2023-10-13T06:36:41;9.60;99.90
8067;DHT22;4076;48.076;9.118;2023-10-13T06:39:07;10.50;99.90
8067;DHT22;4076;48.076;9.118;2023-10-13T06:42:00;12.00;99.90
8067;DHT22;4076;48.076;9.118;2023-10-13T06:44:26;14.00;99.90
8067;DHT22;4076;48.076;9.118;2023-10-13T06:46:51;15.60;99.90
8067;DHT22;4076;48.076;9.118;2023-10-13T06:49:17;17.30;99.40
8067;DHT22;4076;48.076;9.118;2023-10-13T06:51:44;18.80;91.40
8067;DHT22;4076;48.076;9.118;2023-10-13T06:54:12;20.00;77.90
8067;DHT22;4076;48.076;9.118;2023-10-13T06:56:45;21.10;69.00
8067;DHT22;4076;48.076;9.118;2023-10-13T06:59:12;22.20;62.30
8067;DHT22;4076;48.076;9.118;2023-10-13T07:01:39;22.60;58.80
8067;DHT22;4076;48.076;9.118;2023-10-13T07:04:09;23.20;57.20
8067;DHT22;4076;48.076;9.118;2023-10-13T07:06:42;23.80;55.10
8067;DHT22;4076;48.076;9.118;2023-10-13T07:09:14;24.70;53.60
8067;DHT22;4076;48.076;9.118;2023-10-13T07:12:03;26.20;51.80
8067;DHT22;4076;48.076;9.118;2023-10-13T07:14:48;27.40;48.60
8067;DHT22;4076;48.076;9.118;2023-10-13T07:17:17;28.40;46.10
8067;DHT22;4076;48.076;9.118;2023-10-13T07:19:52;29.20;45.00
8067;DHT22;4076;48.076;9.118;2023-10-13T07:22:19;29.80;43.40
8067;DHT22;4076;48.076;9.118;2023-10-13T07:24:46;30.10;42.90
8067;DHT22;4076;48.076;9.118;2023-10-13T07:27:19;30.50;42.40
8067;DHT22;4076;48.076;9.118;2023-10-13T07:29:55;30.90;42.00
8067;DHT22;4076;48.076;9.118;2023-10-13T07:32:24;31.60;41.50
8067;DHT22;4076;48.076;9.118;2023-10-13T07:34:53;32.30;40.00
8067;DHT22;4076;48.076;9.118;2023-10-13T07:37:22;33.10;39.20
8067;DHT22;4076;48.076;9.118;2023-10-13T07:39:50;33.60;37.40
8067;DHT22;4076;48.076;9.118;2023-10-13T07:42:16;34.30;36.30
8067;DHT22;4076;48.076;9.118;2023-10-13T07:44:45;34.80;36.00
8067;DHT22;4076;48.076;9.118;2023-10-13T07:47:14;35.40;35.30
8067;DHT22;4076;48.076;9.118;2023-10-13T07:49:40;35.70;35.70
8067;DHT22;4076;48.076;9.118;2023-10-13T07:52:10;35.60;35.70
8067;DHT22;4076;48.076;9.118;2023-10-13T07:54:46;35.30;35.90
8067;DHT22;4076;48.076;9.118;2023-10-13T07:57:32;35.50;36.10
8067;DHT22;4076;48.076;9.118;2023-10-13T07:59:57;35.60;35.30
8067;DHT22;4076;48.076;9.118;2023-10-13T08:02:36;35.70;35.50
8067;DHT22;4076;48.076;9.118;2023-10-13T08:05:14;36.00;35.50
8067;DHT22;4076;48.076;9.118;2023-10-13T08:07:50;36.20;35.70
8067;DHT22;4076;48.076;9.118;2023-10-13T08:15:10;37.10;38.70
8067;DHT22;4076;48.076;9.118;2023-10-13T08:17:50;37.10;38.10
8067;DHT22;4076;48.076;9.118;2023-10-13T08:20:17;37.40;38.50
8067;DHT22;4076;48.076;9.118;2023-10-13T08:22:43;37.20;38.60
8067;DHT22;4076;48.076;9.118;2023-10-13T08:25:13;37.00;39.30
8067;DHT22;4076;48.076;9.118;2023-10-13T08:27:46;37.00;39.30
8067;DHT22;4076;48.076;9.118;2023-10-13T08:30:31;37.90;41.50
8067;DHT22;4076;48.076;9.118;2023-10-13T08:33:08;36.80;40.30
8067;DHT22;4076;48.076;9.118;2023-10-13T08:35:43;36.60;39.20
8067;DHT22;4076;48.076;9.118;2023-10-13T08:38:35;36.00;38.50
8067;DHT22;4076;48.076;9.118;2023-10-13T08:41:16;36.20;38.40
8067;DHT22;4076;48.076;9.118;2023-10-13T08:43:45;35.60;38.60
8067;DHT22;4076;48.076;9.118;2023-10-13T08:46:17;35.00;39.30
8067;DHT22;4076;48.076;9.118;2023-10-13T08:49:05;35.30;39.50
8067;DHT22;4076;48.076;9.118;2023-10-13T08:51:43;35.00;39.20
8067;DHT22;4076;48.076;9.118;2023-10-13T08:54:15;34.60;39.50
8067;DHT22;4076;48.076;9.118;2023-10-13T08:56:48;34.20;39.60
8067;DHT22;4076;48.076;9.118;2023-10-13T08:59:22;34.20;40.00
8067;DHT22;4076;48.076;9.118;2023-10-13T09:01:49;33.90;39.30
8067;DHT22;4076;48.076;9.118;2023-10-13T09:04:25;33.70;39.60
8067;DHT22;4076;48.076;9.118;2023-10-13T09:07:03;34.00;39.40
8067;DHT22;4076;48.076;9.118;2023-10-13T09:09:53;34.50;39.70
8067;DHT22;4076;48.076;9.118;2023-10-13T09:12:21;35.30;38.60
8067;DHT22;4076;48.076;9.118;2023-10-13T09:15:13;36.20;35.30
8067;DHT22;4076;48.076;9.118;2023-10-13T09:17:45;36.60;34.80
8067;DHT22;4076;48.076;9.118;2023-10-13T09:20:27;36.70;32.90
8067;DHT22;4076;48.076;9.118;2023-10-13T09:23:14;36.60;32.80
8067;DHT22;4076;48.076;9.118;2023-10-13T09:26:10;37.10;33.40
8067;DHT22;4076;48.076;9.118;2023-10-13T09:28:37;37.90;32.00
8067;DHT22;4076;48.076;9.118;2023-10-13T09:31:03;38.00;31.70
8067;DHT22;4076;48.076;9.118;2023-10-13T09:33:33;38.40;31.30
8067;DHT22;4076;48.076;9.118;2023-10-13T09:36:04;39.50;34.60
8067;DHT22;4076;48.076;9.118;2023-10-13T09:38:35;39.50;37.20
8067;DHT22;4076;48.076;9.118;2023-10-13T09:41:07;41.50;38.00
8067;DHT22;4076;48.076;9.118;2023-10-13T09:43:51;40.60;33.00
8067;DHT22;4076;48.076;9.118;2023-10-13T09:46:20;40.50;31.80
8067;DHT22;4076;48.076;9.118;2023-10-13T09:48:49;39.60;31.60
8067;DHT22;4076;48.076;9.118;2023-10-13T09:51:37;38.40;31.50
8067;DHT22;4076;48.076;9.118;2023-10-13T09:55:10;37.00;30.30
8067;DHT22;4076;48.076;9.118;2023-10-13T09:58:11;36.00;31.10
8067;DHT22;4076;48.076;9.118;2023-10-13T10:00:46;35.20;32.50
8067;DHT22;4076;48.076;9.118;2023-10-13T10:03:15;34.40;30.90
8067;DHT22;4076;48.076;9.118;2023-10-13T10:05:55;34.00;31.70
8067;DHT22;4076;48.076;9.118;2023-10-13T10:08:32;33.90;31.70
8067;DHT22;4076;48.076;9.118;2023-10-13T10:19:51;33.30;32.90
8067;DHT22;4076;48.076;9.118;2023-10-13T10:22:27;32.80;33.40
8067;DHT22;4076;48.076;9.118;2023-10-13T10:24:57;32.10;33.30
8067;DHT22;4076;48.076;9.118;2023-10-13T10:27:28;31.30;35.10
8067;DHT22;4076;48.076;9.118;2023-10-13T10:29:54;30.40;37.70
8067;DHT22;4076;48.076;9.118;2023-10-13T10:32:20;29.70;39.50
8067;DHT22;4076;48.076;9.118;2023-10-13T10:34:46;29.30;39.20
8067;DHT22;4076;48.076;9.118;2023-10-13T10:37:12;29.00;40.60
8067;DHT22;4076;48.076;9.118;2023-10-13T10:39:38;28.80;43.30
8067;DHT22;4076;48.076;9.118;2023-10-13T10:42:15;28.90;43.50
8067;DHT22;4076;48.076;9.118;2023-10-13T10:44:43;28.90;42.80
8067;DHT22;4076;48.076;9.118;2023-10-13T10:47:13;29.10;42.30
8067;DHT22;4076;48.076;9.118;2023-10-13T10:49:45;29.20;41.20
8067;DHT22;4076;48.076;9.118;2023-10-13T10:52:11;29.20;40.80
8067;DHT22;4076;48.076;9.118;2023-10-13T10:54:44;29.00;40.80
8067;DHT22;4076;48.076;9.118;2023-10-13T10:57:14;29.10;40.90
8067;DHT22;4076;48.076;9.118;2023-10-13T10:59:44;29.30;40.00
8067;DHT22;4076;48.076;9.118;2023-10-13T11:02:10;29.50;39.60
8067;DHT22;4076;48.076;9.118;2023-10-13T11:04:41;29.40;41.00
8067;DHT22;4076;48.076;9.118;2023-10-13T11:07:21;29.30;39.60
8067;DHT22;4076;48.076;9.118;2023-10-13T11:09:47;29.10;40.40
8067;DHT22;4076;48.076;9.118;2023-10-13T11:12:14;29.10;40.30
8067;DHT22;4076;48.076;9.118;2023-10-13T11:14:59;29.40;40.60
8067;DHT22;4076;48.076;9.118;2023-10-13T11:17:25;29.60;40.10
8067;DHT22;4076;48.076;9.118;2023-10-13T11:20:16;29.60;40.20
8067;DHT22;4076;48.076;9.118;2023-10-13T11:22:46;29.90;39.80
8067;DHT22;4076;48.076;9.118;2023-10-13T11:25:24;30.30;40.10
8067;DHT22;4076;48.076;9.118;2023-10-13T11:27:55;30.50;39.70
8067;DHT22;4076;48.076;9.118;2023-10-13T11:30:23;30.60;39.30
8067;DHT22;4076;48.076;9.118;2023-10-13T11:33:05;30.60;39.20
8067;DHT22;4076;48.076;9.118;2023-10-13T11:35:32;30.50;39.50
8067;DHT22;4076;48.076;9.118;2023-10-13T11:38:16;30.20;39.70
8067;DHT22;4076;48.076;9.118;2023-10-13T11:40:57;29.80;39.60
8067;DHT22;4076;48.076;9.118;2023-10-13T11:43:35;29.20;40.90
8067;DHT22;4076;48.076;9.118;2023-10-13T11:46:21;28.80;40.50
8067;DHT22;4076;48.076;9.118;2023-10-13T11:49:06;28.20;41.20
8067;DHT22;4076;48.076;9.118;2023-10-13T11:51:38;27.70;45.60
8067;DHT22;4076;48.076;9.118;2023-10-13T11:54:04;27.40;45.50
8067;DHT22;4076;48.076;9.118;2023-10-13T11:56:30;27.10;45.80
8067;DHT22;4076;48.076;9.118;2023-10-13T11:58:55;27.10;44.30
8067;DHT22;4076;48.076;9.118;2023-10-13T12:01:27;27.00;45.00
8067;DHT22;4076;48.076;9.118;2023-10-13T12:04:11;27.00;46.00
8067;DHT22;4076;48.076;9.118;2023-10-13T12:06:55;27.00;47.10
8067;DHT22;4076;48.076;9.118;2023-10-13T12:09:56;27.10;48.00
8067;DHT22;4076;48.076;9.118;2023-10-13T12:12:26;27.00;44.20
8067;DHT22;4076;48.076;9.118;2023-10-13T12:14:53;26.90;44.70
8067;DHT22;4076;48.076;9.118;2023-10-13T12:17:23;26.90;43.30
8067;DHT22;4076;48.076;9.118;2023-10-13T12:20:01;26.80;44.20
8067;DHT22;4076;48.076;9.118;2023-10-13T12:22:30;26.70;44.60
8067;DHT22;4076;48.076;9.118;2023-10-13T12:25:05;26.80;44.40
8067;DHT22;4076;48.076;9.118;2023-10-13T12:27:44;26.80;44.50
8067;DHT22;4076;48.076;9.118;2023-10-13T12:30:15;26.80;43.90
8067;DHT22;4076;48.076;9.118;2023-10-13T12:32:49;26.70;43.20
8067;DHT22;4076;48.076;9.118;2023-10-13T12:35:24;26.50;43.70
8067;DHT22;4076;48.076;9.118;2023-10-13T12:37:55;26.30;43.20
8067;DHT22;4076;48.076;9.118;2023-10-13T12:40:30;26.10;44.20
8067;DHT22;4076;48.076;9.118;2023-10-13T12:43:14;25.90;45.10
8067;DHT22;4076;48.076;9.118;2023-10-13T12:45:58;25.80;45.00
8067;DHT22;4076;48.076;9.118;2023-10-13T12:48:43;25.80;45.90
8067;DHT22;4076;48.076;9.118;2023-10-13T12:51:32;25.70;44.60
8067;DHT22;4076;48.076;9.118;2023-10-13T12:53:58;25.80;45.70
8067;DHT22;4076;48.076;9.118;2023-10-13T12:56:39;25.90;45.40
8067;DHT22;4076;48.076;9.118;2023-10-13T12:59:08;25.80;45.70
8067;DHT22;4076;48.076;9.118;2023-10-13T13:01:34;25.90;45.90
8067;DHT22;4076;48.076;9.118;2023-10-13T13:04:00;26.00;45.80
8067;DHT22;4076;48.076;9.118;2023-10-13T13:06:29;26.00;45.60
8067;DHT22;4076;48.076;9.118;2023-10-13T13:08:59;26.10;46.40
8067;DHT22;4076;48.076;9.118;2023-10-13T13:11:26;26.10;46.10
8067;DHT22;4076;48.076;9.118;2023-10-13T13:13:53;26.20;45.50
8067;DHT22;4076;48.076;9.118;2023-10-13T13:16:19;26.20;46.60
8067;DHT22;4076;48.076;9.118;2023-10-13T13:18:50;26.10;45.70
8067;DHT22;4076;48.076;9.118;2023-10-13T13:21:15;26.10;46.30
8067;DHT22;4076;48.076;9.118;2023-10-13T13:23:52;26.10;45.40
8067;DHT22;4076;48.076;9.118;2023-10-13T13:26:22;26.10;46.30
8067;DHT22;4076;48.076;9.118;2023-10-13T13:28:48;26.00;46.20
8067;DHT22;4076;48.076;9.118;2023-10-13T13:31:21;26.10;46.30
8067;DHT22;4076;48.076;9.118;2023-10-13T13:33:52;26.10;46.70
8067;DHT22;4076;48.076;9.118;2023-10-13T13:36:17;26.10;46.50
8067;DHT22;4076;48.076;9.118;2023-10-13T13:38:45;26.10;45.50
8067;DHT22;4076;48.076;9.118;2023-10-13T13:41:15;26.00;45.80
8067;DHT22;4076;48.076;9.118;2023-10-13T13:43:45;26.00;46.00
8067;DHT22;4076;48.076;9.118;2023-10-13T13:46:19;26.00;46.10
8067;DHT22;4076;48.076;9.118;2023-10-13T13:48:45;26.00;46.60
8067;DHT22;4076;48.076;9.118;2023-10-13T13:51:13;25.90;45.80
8067;DHT22;4076;48.076;9.118;2023-10-13T13:53:45;25.80;45.70
8067;DHT22;4076;48.076;9.118;2023-10-13T13:56:11;25.70;46.30
8067;DHT22;4076;48.076;9.118;2023-10-13T13:58:42;25.70;46.40
8067;DHT22;4076;48.076;9.118;2023-10-13T14:01:08;25.70;46.50
8067;DHT22;4076;48.076;9.118;2023-10-13T14:03:51;25.60;46.40
8067;DHT22;4076;48.076;9.118;2023-10-13T14:06:19;25.50;46.60
8067;DHT22;4076;48.076;9.118;2023-10-13T14:08:55;25.50;46.00
8067;DHT22;4076;48.076;9.118;2023-10-13T14:11:25;25.40;46.50
8067;DHT22;4076;48.076;9.118;2023-10-13T14:14:11;25.40;45.80
8067;DHT22;4076;48.076;9.118;2023-10-13T14:16:57;25.30;45.10
8067;DHT22;4076;48.076;9.118;2023-10-13T14:19:35;25.10;46.00
8067;DHT22;4076;48.076;9.118;2023-10-13T14:22:12;25.10;46.40
8067;DHT22;4076;48.076;9.118;2023-10-13T14:25:16;25.00;46.50
8067;DHT22;4076;48.076;9.118;2023-10-13T14:27:42;25.00;47.10
8067;DHT22;4076;48.076;9.118;2023-10-13T14:30:07;25.00;46.90
8067;DHT22;4076;48.076;9.118;2023-10-13T14:32:33;24.90;46.50
8067;DHT22;4076;48.076;9.118;2023-10-13T14:35:06;24.80;46.90
8067;DHT22;4076;48.076;9.118;2023-10-13T14:37:40;24.80;46.50
8067;DHT22;4076;48.076;9.118;2023-10-13T14:40:06;24.70;47.40
8067;DHT22;4076;48.076;9.118;2023-10-13T14:42:38;24.70;47.00
8067;DHT22;4076;48.076;9.118;2023-10-13T14:45:06;24.70;46.90
8067;DHT22;4076;48.076;9.118;2023-10-13T14:47:38;24.60;46.90
8067;DHT22;4076;48.076;9.118;2023-10-13T14:50:05;24.60;46.90
8067;DHT22;4076;48.076;9.118;2023-10-13T14:52:31;24.60;47.30
8067;DHT22;4076;48.076;9.118;2023-10-13T14:54:58;24.60;46.10
8067;DHT22;4076;48.076;9.118;2023-10-13T14:57:24;24.50;46.60
8067;DHT22;4076;48.076;9.118;2023-10-13T14:59:52;24.50;46.50
8067;DHT22;4076;48.076;9.118;2023-10-13T15:02:17;24.40;47.20
8067;DHT22;4076;48.076;9.118;2023-10-13T15:04:43;24.40;46.80
8067;DHT22;4076;48.076;9.118;2023-10-13T15:07:08;24.30;47.30
8067;DHT22;4076;48.076;9.118;2023-10-13T15:09:34;24.30;47.70
8067;DHT22;4076;48.076;9.118;2023-10-13T15:12:00;24.20;47.60
8067;DHT22;4076;48.076;9.118;2023-10-13T15:14:30;24.20;47.80
8067;DHT22;4076;48.076;9.118;2023-10-13T15:16:58;24.10;48.70
8067;DHT22;4076;48.076;9.118;2023-10-13T15:19:26;24.00;48.50
8067;DHT22;4076;48.076;9.118;2023-10-13T15:21:51;24.00;48.30
8067;DHT22;4076;48.076;9.118;2023-10-13T15:24:18;23.90;48.10
8067;DHT22;4076;48.076;9.118;2023-10-13T15:26:46;23.80;48.70
8067;DHT22;4076;48.076;9.118;2023-10-13T15:29:16;23.70;48.90
8067;DHT22;4076;48.076;9.118;2023-10-13T15:31:44;23.60;49.70
8067;DHT22;4076;48.076;9.118;2023-10-13T15:34:30;23.50;50.70
8067;DHT22;4076;48.076;9.118;2023-10-13T15:36:57;23.40;51.60
8067;DHT22;4076;48.076;9.118;2023-10-13T15:39:23;23.30;52.00
8067;DHT22;4076;48.076;9.118;2023-10-13T15:41:52;23.10;53.80
8067;DHT22;4076;48.076;9.118;2023-10-13T15:44:19;23.00;53.90
8067;DHT22;4076;48.076;9.118;2023-10-13T15:46:46;22.80;54.30
8067;DHT22;4076;48.076;9.118;2023-10-13T15:49:18;22.60;53.40
8067;DHT22;4076;48.076;9.118;2023-10-13T15:51:43;22.50;53.90
8067;DHT22;4076;48.076;9.118;2023-10-13T15:54:10;22.40;55.40
8067;DHT22;4076;48.076;9.118;2023-10-13T15:59:09;21.90;57.00
8067;DHT22;4076;48.076;9.118;2023-10-13T16:01:34;21.60;57.30
8067;DHT22;4076;48.076;9.118;2023-10-13T16:04:00;21.40;61.90
8067;DHT22;4076;48.076;9.118;2023-10-13T16:06:33;21.20;58.60
8067;DHT22;4076;48.076;9.118;2023-10-13T16:08:58;20.80;60.40
8067;DHT22;4076;48.076;9.118;2023-10-13T16:11:24;20.50;61.00
8067;DHT22;4076;48.076;9.118;2023-10-13T16:13:50;20.30;62.30
8067;DHT22;4076;48.076;9.118;2023-10-13T16:16:22;20.00;62.60
8067;DHT22;4076;48.076;9.118;2023-10-13T16:18:52;19.80;61.90
8067;DHT22;4076;48.076;9.118;2023-10-13T16:23:46;19.40;64.10
8067;DHT22;4076;48.076;9.118;2023-10-13T16:26:19;19.20;64.30
8067;DHT22;4076;48.076;9.118;2023-10-13T16:28:51;19.00;66.80
8067;DHT22;4076;48.076;9.118;2023-10-13T16:31:19;18.80;67.70
8067;DHT22;4076;48.076;9.118;2023-10-13T16:33:48;18.60;68.40
8067;DHT22;4076;48.076;9.118;2023-10-13T16:36:14;18.80;70.50
8067;DHT22;4076;48.076;9.118;2023-10-13T16:38:40;18.30;66.20
8067;DHT22;4076;48.076;9.118;2023-10-13T16:41:06;18.10;67.20
8067;DHT22;4076;48.076;9.118;2023-10-13T16:43:35;18.00;67.50
8067;DHT22;4076;48.076;9.118;2023-10-13T16:46:19;17.80;69.00
8067;DHT22;4076;48.076;9.118;2023-10-13T16:48:44;17.60;73.30
8067;DHT22;4076;48.076;9.118;2023-10-13T16:51:14;17.50;68.00
8067;DHT22;4076;48.076;9.118;2023-10-13T16:53:43;17.30;69.10
8067;DHT22;4076;48.076;9.118;2023-10-13T16:56:15;17.10;72.80
8067;DHT22;4076;48.076;9.118;2023-10-13T16:58:42;16.90;69.30
8067;DHT22;4076;48.076;9.118;2023-10-13T17:01:13;16.80;74.10
8067;DHT22;4076;48.076;9.118;2023-10-13T17:03:39;16.80;76.10
8067;DHT22;4076;48.076;9.118;2023-10-13T17:06:07;16.50;78.20